createdAt,value
2019-03-03T00:01:23.064Z,7.43
2019-03-03T00:03:53.607Z,6.57
2019-03-03T00:06:22.984Z,6.77
2019-03-03T00:08:52.308Z,6.97
2019-03-03T00:11:21.783Z,6.57
2019-03-03T00:13:51.222Z,7.00
2019-03-03T00:16:20.649Z,7.10
2019-03-03T00:18:49.955Z,6.80
2019-03-03T00:21:21.085Z,6.70
2019-03-03T00:23:50.496Z,7.10
2019-03-03T00:26:20.016Z,7.27
2019-03-03T00:28:49.367Z,7.50
2019-03-03T00:31:21.748Z,8.13
2019-03-03T00:33:51.350Z,8.07
2019-03-03T00:36:21.018Z,7.70
2019-03-03T00:38:51.999Z,7.97
2019-03-03T00:41:23.211Z,7.73
2019-03-03T00:44:10.433Z,8.80
2019-03-03T00:46:53.671Z,7.97
2019-03-03T00:49:24.643Z,7.87
2019-03-03T00:51:55.604Z,7.80
2019-03-03T00:54:29.603Z,8.70
2019-03-03T00:57:00.574Z,8.70
2019-03-03T00:59:47.135Z,9.13
2019-03-03T01:02:20.818Z,9.43
2019-03-03T01:04:54.933Z,9.20
2019-03-03T01:07:42.296Z,10.03
2019-03-03T01:10:13.421Z,8.40
2019-03-03T01:12:44.451Z,8.23
2019-03-03T01:15:19.786Z,9.03
2019-03-03T01:17:56.515Z,8.83
2019-03-03T01:20:36.564Z,8.33
2019-03-03T01:23:10.626Z,8.37
2019-03-03T01:25:40.038Z,8.73
2019-03-03T01:28:09.542Z,8.30
2019-03-03T01:30:39.132Z,9.17
2019-03-03T01:33:08.460Z,8.87
2019-03-03T01:35:37.854Z,8.97
2019-03-03T01:38:07.411Z,9.23
2019-03-03T01:40:39.561Z,8.60
2019-03-03T01:43:09.013Z,9.50
2019-03-03T01:45:38.664Z,8.47
2019-03-03T01:48:08.231Z,9.10
2019-03-03T01:50:37.638Z,9.23
2019-03-03T01:53:07.117Z,9.40
2019-03-03T01:55:36.590Z,9.50
2019-03-03T01:58:05.966Z,10.20
2019-03-03T02:00:35.413Z,9.20
2019-03-03T02:03:05.696Z,10.07
2019-03-03T02:05:35.152Z,8.77
2019-03-03T02:08:04.825Z,8.90
2019-03-03T02:10:34.729Z,8.93
2019-03-03T02:13:05.446Z,9.70
2019-03-03T02:15:35.134Z,9.30
2019-03-03T02:18:04.680Z,8.97
2019-03-03T02:20:34.286Z,9.17
2019-03-03T02:23:03.913Z,8.43
2019-03-03T02:25:33.465Z,9.30
2019-03-03T02:28:02.894Z,9.37
2019-03-03T02:30:32.006Z,8.10
2019-03-03T02:33:01.364Z,8.70
2019-03-03T02:35:30.731Z,8.27
2019-03-03T02:38:00.079Z,8.90
2019-03-03T02:40:29.463Z,8.60
2019-03-03T02:42:58.829Z,8.97
2019-03-03T02:45:28.184Z,8.80
2019-03-03T02:47:57.575Z,8.00
2019-03-03T02:50:27.059Z,7.90
2019-03-03T02:52:56.732Z,8.77
2019-03-03T02:55:26.408Z,9.17
2019-03-03T02:57:55.712Z,9.07
2019-03-03T03:00:25.259Z,9.43
2019-03-03T03:02:56.285Z,8.97
2019-03-03T03:05:31.211Z,9.70
2019-03-03T03:08:08.529Z,9.93
2019-03-03T03:10:42.444Z,10.53
2019-03-03T03:13:15.957Z,10.43
2019-03-03T03:15:47.081Z,9.97
2019-03-03T03:18:27.191Z,11.90
2019-03-03T03:21:07.172Z,12.07
2019-03-03T03:23:38.298Z,12.07
2019-03-03T03:26:15.349Z,12.07
2019-03-03T03:28:46.638Z,11.73
2019-03-03T03:31:17.714Z,11.70
2019-03-03T03:33:51.674Z,11.63
2019-03-03T03:36:41.046Z,12.03
2019-03-03T03:39:14.993Z,12.10
2019-03-03T03:41:46.063Z,11.53
2019-03-03T03:44:17.181Z,11.73
2019-03-03T03:46:54.091Z,11.17
2019-03-03T03:49:27.814Z,12.13
2019-03-03T03:51:58.789Z,10.80
2019-03-03T03:54:41.612Z,10.57
2019-03-03T03:57:12.585Z,11.50
2019-03-03T03:59:43.565Z,12.77
2019-03-03T04:02:14.986Z,12.00
2019-03-03T04:05:02.404Z,11.47
2019-03-03T04:07:36.792Z,11.97
2019-03-03T04:10:09.511Z,11.10
2019-03-03T04:12:52.858Z,11.57
2019-03-03T04:15:38.924Z,11.63
2019-03-03T04:18:12.506Z,12.40
2019-03-03T04:20:52.581Z,11.33
2019-03-03T04:23:40.119Z,11.80
2019-03-03T04:26:13.841Z,12.23
2019-03-03T04:28:48.136Z,11.37
2019-03-03T04:31:24.898Z,11.20
2019-03-03T04:33:58.405Z,12.30
2019-03-03T04:36:33.253Z,11.90
2019-03-03T04:39:04.284Z,11.20
2019-03-03T04:41:39.121Z,11.87
2019-03-03T04:44:10.177Z,11.63
2019-03-03T04:46:41.252Z,12.23
2019-03-03T04:49:18.285Z,12.57
2019-03-03T04:52:07.587Z,10.93
2019-03-03T04:54:41.568Z,12.07
2019-03-03T04:57:15.731Z,11.73
2019-03-03T04:59:49.689Z,13.33
2019-03-03T05:02:30.082Z,12.67
2019-03-03T05:05:01.077Z,13.07
2019-03-03T05:07:36.362Z,13.27
2019-03-03T05:10:27.025Z,11.43
2019-03-03T05:13:00.881Z,12.33
2019-03-03T05:15:31.919Z,13.00
2019-03-03T05:18:02.959Z,11.67
2019-03-03T05:20:46.118Z,11.83
2019-03-03T05:23:15.453Z,11.67
2019-03-03T05:25:44.771Z,11.97
2019-03-03T05:28:14.219Z,11.77
2019-03-03T05:30:43.745Z,11.13
2019-03-03T05:33:13.060Z,12.23
2019-03-03T05:35:43.464Z,12.13
2019-03-03T05:38:13.042Z,11.87
2019-03-03T05:40:42.508Z,13.03
2019-03-03T05:43:11.981Z,13.50
2019-03-03T05:45:41.340Z,13.20
2019-03-03T05:48:11.107Z,13.93
2019-03-03T05:50:40.424Z,14.53
2019-03-03T05:53:10.006Z,13.73
2019-03-03T05:55:39.309Z,13.90
2019-03-03T05:58:08.703Z,14.10
2019-03-03T06:00:38.149Z,13.93
2019-03-03T06:03:08.114Z,13.07
2019-03-03T06:05:38.737Z,13.17
2019-03-03T06:08:08.081Z,14.37
2019-03-03T06:10:37.468Z,14.80
2019-03-03T06:13:06.861Z,14.30
2019-03-03T06:15:36.219Z,13.43
2019-03-03T06:18:05.660Z,13.30
2019-03-03T06:20:35.976Z,11.97
2019-03-03T06:23:05.445Z,12.73
2019-03-03T06:25:34.846Z,13.57
2019-03-03T06:28:04.312Z,11.77
2019-03-03T06:30:33.973Z,12.87
2019-03-03T06:33:03.378Z,12.80
2019-03-03T06:35:32.864Z,12.53
2019-03-03T06:38:02.314Z,11.33
2019-03-03T06:40:31.728Z,12.73
2019-03-03T06:43:01.137Z,11.80
2019-03-03T06:45:30.550Z,11.27
2019-03-03T06:47:59.879Z,11.53
2019-03-03T06:50:29.378Z,11.20
2019-03-03T06:52:58.836Z,11.30
2019-03-03T06:55:27.970Z,12.60
2019-03-03T06:57:58.489Z,12.23
2019-03-03T07:00:27.391Z,11.50
2019-03-03T07:02:56.302Z,12.37
2019-03-03T07:05:26.126Z,12.03
2019-03-03T07:07:55.127Z,12.27
2019-03-03T07:10:24.438Z,12.37
2019-03-03T07:12:53.948Z,11.60
2019-03-03T07:15:23.269Z,12.37
2019-03-03T07:17:52.667Z,11.00
2019-03-03T07:20:22.037Z,11.97
2019-03-03T07:22:51.423Z,11.27
2019-03-03T07:25:21.159Z,11.47
2019-03-03T07:27:50.239Z,10.37
2019-03-03T07:30:19.571Z,11.60
2019-03-03T07:33:05.964Z,10.77
2019-03-03T07:35:35.321Z,10.10
2019-03-03T07:38:04.778Z,10.07
2019-03-03T07:40:34.022Z,11.00
2019-03-03T07:43:03.377Z,10.10
2019-03-03T07:45:32.291Z,10.33
2019-03-03T07:48:01.205Z,9.80
2019-03-03T07:50:30.153Z,11.10
2019-03-03T07:52:59.244Z,11.20
2019-03-03T07:55:28.552Z,9.87
2019-03-03T07:57:58.409Z,9.73
2019-03-03T08:00:27.785Z,11.07
2019-03-03T08:02:57.116Z,10.13
2019-03-03T08:05:26.160Z,10.10
2019-03-03T08:07:55.261Z,10.10
2019-03-03T08:10:24.324Z,10.20
2019-03-03T08:12:53.308Z,9.43
2019-03-03T08:15:22.296Z,9.80
2019-03-03T08:17:51.658Z,9.60
2019-03-03T08:20:21.228Z,9.80
2019-03-03T08:22:50.725Z,10.17
2019-03-03T08:25:20.084Z,9.13
2019-03-03T08:27:49.501Z,10.10
2019-03-03T08:30:19.441Z,9.57
2019-03-03T08:32:48.608Z,10.03
2019-03-03T08:35:20.210Z,9.50
2019-03-03T08:37:49.605Z,9.23
2019-03-03T08:40:19.105Z,9.40
2019-03-03T08:42:52.928Z,8.97
2019-03-03T08:45:23.895Z,9.80
2019-03-03T08:48:10.408Z,8.77
2019-03-03T08:50:47.045Z,8.30
2019-03-03T08:53:21.012Z,8.43
2019-03-03T08:55:52.179Z,7.90
2019-03-03T08:58:28.998Z,7.80
2019-03-03T09:01:05.868Z,8.50
2019-03-03T09:03:39.413Z,8.33
2019-03-03T09:06:13.308Z,8.57
2019-03-03T09:08:44.348Z,8.30
2019-03-03T09:11:21.355Z,8.03
2019-03-03T09:14:01.349Z,8.70
2019-03-03T09:16:34.755Z,8.10
2019-03-03T09:19:08.316Z,8.67
2019-03-03T09:21:45.148Z,8.63
2019-03-03T09:24:32.238Z,7.80
2019-03-03T09:27:08.806Z,7.60
2019-03-03T09:29:42.826Z,8.27
2019-03-03T09:32:22.639Z,7.33
2019-03-03T09:34:57.984Z,6.93
2019-03-03T09:37:32.069Z,7.80
2019-03-03T09:40:09.866Z,7.20
2019-03-03T09:42:42.039Z,7.30
2019-03-03T09:45:29.793Z,7.20
2019-03-03T09:48:03.388Z,7.60
2019-03-03T09:50:46.880Z,7.40
2019-03-03T09:53:17.541Z,7.20
2019-03-03T09:56:05.264Z,6.90
2019-03-03T09:58:39.101Z,7.40
2019-03-03T10:01:15.956Z,7.40
2019-03-03T10:03:52.748Z,7.67
2019-03-03T10:06:23.778Z,7.47
2019-03-03T10:09:03.219Z,7.00
2019-03-03T10:11:35.392Z,7.30
2019-03-03T10:14:09.631Z,6.93
2019-03-03T10:16:40.577Z,7.43
2019-03-03T10:19:11.565Z,6.70
2019-03-03T10:21:51.516Z,6.63
2019-03-03T10:24:28.558Z,6.30
2019-03-03T10:26:59.720Z,6.40
2019-03-03T10:29:36.991Z,6.20
2019-03-03T10:32:24.321Z,5.77
2019-03-03T10:35:01.610Z,5.60
2019-03-03T10:37:37.000Z,5.00
2019-03-03T10:40:09.978Z,5.87
2019-03-03T10:42:40.821Z,5.33
2019-03-03T10:45:21.071Z,5.30
2019-03-03T10:47:57.636Z,4.40
2019-03-03T10:50:43.780Z,4.40
2019-03-03T10:53:30.865Z,4.03
2019-03-03T10:56:10.513Z,4.23
2019-03-03T10:58:44.241Z,4.73
2019-03-03T11:01:17.925Z,5.70
2019-03-03T11:03:55.964Z,6.27
2019-03-03T11:06:29.646Z,5.13
2019-03-03T11:09:02.972Z,5.70
2019-03-03T11:11:35.167Z,5.40
2019-03-03T11:14:23.233Z,5.30
2019-03-03T11:17:06.122Z,5.27
2019-03-03T11:19:36.821Z,5.63
2019-03-03T11:22:07.600Z,4.90
2019-03-03T11:24:54.792Z,5.20
2019-03-03T11:27:28.320Z,5.13
2019-03-03T11:29:58.927Z,5.20
2019-03-03T11:32:32.560Z,5.30
2019-03-03T11:35:03.194Z,5.83
2019-03-03T11:37:37.344Z,5.00
2019-03-03T11:40:09.603Z,5.03
2019-03-03T11:42:49.352Z,5.10
2019-03-03T11:45:31.988Z,4.73
2019-03-03T11:48:15.077Z,4.80
2019-03-03T11:51:02.305Z,4.20
2019-03-03T11:53:39.002Z,4.70
2019-03-03T11:56:12.678Z,3.37
2019-03-03T11:58:46.284Z,3.90
2019-03-03T12:01:16.966Z,4.27
2019-03-03T12:03:47.588Z,4.50
2019-03-03T12:06:27.343Z,4.03
2019-03-03T12:09:02.349Z,3.83
2019-03-03T12:11:34.536Z,4.13
2019-03-03T12:14:06.633Z,4.33
2019-03-03T12:16:39.889Z,4.10
2019-03-03T12:19:22.982Z,3.93
2019-03-03T12:21:59.756Z,3.83
2019-03-03T12:24:39.309Z,4.00
2019-03-03T12:27:12.887Z,3.63
2019-03-03T12:29:43.528Z,3.97
2019-03-03T12:32:17.608Z,3.73
2019-03-03T12:34:50.942Z,3.60
2019-03-03T12:37:24.423Z,3.83
2019-03-03T12:39:57.851Z,3.40
2019-03-03T12:42:28.483Z,3.43
2019-03-03T12:45:15.723Z,3.43
2019-03-03T12:48:05.084Z,2.93
2019-03-03T12:50:52.412Z,2.63
2019-03-03T12:53:23.199Z,2.90
2019-03-03T12:56:12.024Z,2.60
2019-03-03T12:58:45.567Z,2.50
2019-03-03T13:01:28.559Z,2.50
2019-03-03T13:04:17.587Z,2.30
2019-03-03T13:07:04.623Z,2.77
2019-03-03T13:09:41.575Z,2.40
2019-03-03T13:12:18.634Z,2.20
2019-03-03T13:14:52.053Z,2.20
2019-03-03T13:17:31.361Z,2.63
2019-03-03T13:20:02.100Z,2.60
2019-03-03T13:22:38.540Z,2.50
2019-03-03T13:25:09.942Z,2.23
2019-03-03T13:27:47.377Z,2.40
2019-03-03T13:30:23.916Z,2.03
2019-03-03T13:32:54.658Z,2.20
2019-03-03T13:35:28.166Z,2.10
2019-03-03T13:38:02.748Z,2.43
2019-03-03T13:40:33.371Z,2.33
2019-03-03T13:43:02.342Z,2.03
2019-03-03T13:45:31.647Z,2.03
2019-03-03T13:48:00.600Z,1.80
2019-03-03T13:50:30.732Z,1.50
2019-03-03T13:52:59.818Z,1.47
2019-03-03T13:55:28.714Z,1.60
2019-03-03T13:57:57.922Z,1.60
2019-03-03T14:00:26.864Z,1.53
2019-03-03T14:02:55.890Z,1.73
2019-03-03T14:05:25.084Z,1.77
2019-03-03T14:07:54.079Z,2.00
2019-03-03T14:10:23.096Z,1.73
2019-03-03T14:12:52.051Z,1.77
2019-03-03T14:15:21.320Z,1.70
2019-03-03T14:17:50.653Z,1.50
2019-03-03T14:20:21.694Z,1.60
2019-03-03T14:22:51.106Z,1.37
2019-03-03T14:25:20.539Z,1.53
2019-03-03T14:27:49.585Z,1.70
2019-03-03T14:30:22.783Z,1.77
2019-03-03T14:32:51.729Z,1.53
2019-03-03T14:35:20.692Z,1.70
2019-03-03T14:37:49.597Z,1.50
2019-03-03T14:40:19.749Z,1.40
2019-03-03T14:42:48.880Z,1.37
2019-03-03T14:45:18.391Z,1.47
2019-03-03T14:47:47.426Z,1.27
2019-03-03T14:50:20.339Z,1.73
2019-03-03T14:52:51.664Z,1.20
2019-03-03T14:55:20.555Z,1.30
2019-03-03T14:57:49.547Z,1.10
2019-03-03T15:00:24.673Z,1.57
2019-03-03T15:02:53.921Z,1.37
2019-03-03T15:05:23.890Z,1.37
2019-03-03T15:07:53.004Z,1.00
2019-03-03T15:10:22.320Z,1.27
2019-03-03T15:12:51.206Z,1.10
2019-03-03T15:15:21.252Z,1.67
2019-03-03T15:17:50.501Z,1.47
2019-03-03T15:20:19.418Z,1.43
2019-03-03T15:22:48.465Z,1.30
2019-03-03T15:25:17.672Z,1.17
2019-03-03T15:27:47.575Z,1.50
2019-03-03T15:30:18.518Z,1.40
2019-03-03T15:32:47.694Z,1.80
2019-03-03T15:35:16.773Z,2.13
2019-03-03T15:37:46.035Z,1.87
2019-03-03T15:40:16.463Z,1.80
2019-03-03T15:42:45.804Z,1.50
2019-03-03T15:45:19.347Z,2.30
2019-03-03T15:47:49.503Z,2.10
2019-03-03T15:50:20.069Z,2.10
2019-03-03T15:52:49.334Z,2.17
2019-03-03T15:55:22.749Z,2.40
2019-03-03T15:57:51.739Z,1.80
2019-03-03T16:00:24.841Z,1.93
2019-03-03T16:02:53.757Z,2.17
2019-03-03T16:05:22.720Z,2.73
2019-03-03T16:07:51.682Z,3.10
2019-03-03T16:10:22.157Z,2.13
2019-03-03T16:12:51.054Z,2.50
2019-03-03T16:15:20.430Z,2.40
2019-03-03T16:17:49.463Z,2.10
2019-03-03T16:20:21.946Z,2.47
2019-03-03T16:22:52.524Z,2.23
2019-03-03T16:25:22.364Z,2.20
2019-03-03T16:27:51.900Z,2.33
2019-03-03T16:30:23.345Z,2.83
2019-03-03T16:32:52.927Z,2.20
2019-03-03T16:35:22.324Z,2.20
2019-03-03T16:37:53.248Z,2.47
2019-03-03T16:40:23.909Z,2.43
2019-03-03T16:42:53.398Z,2.50
2019-03-03T16:45:23.757Z,2.37
2019-03-03T16:47:53.158Z,2.37
2019-03-03T16:50:23.960Z,2.30
2019-03-03T16:52:53.625Z,2.63
2019-03-03T16:55:23.112Z,2.23
2019-03-03T16:57:53.149Z,2.13
2019-03-03T17:00:25.255Z,2.00
2019-03-03T17:02:54.842Z,2.63
2019-03-03T17:05:29.093Z,2.50
2019-03-03T17:07:58.701Z,2.27
2019-03-03T17:10:28.379Z,1.67
2019-03-03T17:12:57.769Z,2.70
2019-03-03T17:15:28.822Z,2.10
2019-03-03T17:17:58.356Z,2.33
2019-03-03T17:20:28.759Z,2.50
2019-03-03T17:22:58.458Z,1.87
2019-03-03T17:25:29.032Z,2.30
2019-03-03T17:28:00.040Z,3.10
2019-03-03T17:30:29.505Z,2.10
2019-03-03T17:32:58.851Z,2.60
2019-03-03T17:35:28.246Z,2.13
2019-03-03T17:37:57.785Z,2.30
2019-03-03T17:40:27.949Z,2.00
2019-03-03T17:42:57.525Z,2.30
2019-03-03T17:45:27.180Z,2.20
2019-03-03T17:47:56.645Z,2.40
2019-03-03T17:50:47.312Z,2.00
2019-03-03T17:53:16.669Z,1.90
2019-03-03T17:55:49.220Z,2.10
2019-03-03T17:58:18.803Z,2.10
2019-03-03T18:00:49.000Z,2.67
2019-03-03T18:03:18.461Z,1.93
2019-03-03T18:05:48.140Z,2.23
2019-03-03T18:08:17.556Z,1.80
2019-03-03T18:10:48.856Z,2.17
2019-03-03T18:13:18.388Z,2.20
2019-03-03T18:15:47.847Z,2.20
2019-03-03T18:18:18.425Z,2.17
2019-03-03T18:20:47.954Z,1.77
2019-03-03T18:23:17.681Z,1.80
2019-03-03T18:25:47.097Z,2.03
2019-03-03T18:28:16.469Z,2.27
2019-03-03T18:30:45.779Z,2.30
2019-03-03T18:33:15.333Z,1.73
2019-03-03T18:35:44.657Z,2.07
2019-03-03T18:38:14.211Z,2.03
2019-03-03T18:40:44.110Z,2.37
2019-03-03T18:43:13.556Z,2.17
2019-03-03T18:45:43.036Z,2.53
2019-03-03T18:48:12.537Z,2.73
2019-03-03T18:50:42.115Z,2.53
2019-03-03T18:53:11.687Z,2.83
2019-03-03T18:55:41.079Z,2.20
2019-03-03T18:58:10.734Z,2.93
2019-03-03T19:00:40.237Z,2.53
2019-03-03T19:03:09.752Z,2.67
2019-03-03T19:05:39.356Z,2.37
2019-03-03T19:08:08.528Z,2.30
2019-03-03T19:10:38.771Z,2.80
2019-03-03T19:13:08.855Z,2.70
2019-03-03T19:15:37.834Z,2.60
2019-03-03T19:18:06.808Z,2.53
2019-03-03T19:20:36.084Z,2.00
2019-03-03T19:23:05.061Z,2.20
2019-03-03T19:25:33.951Z,2.47
2019-03-03T19:28:02.958Z,2.80
2019-03-03T19:30:32.177Z,2.23
2019-03-03T19:33:05.868Z,3.23
2019-03-03T19:35:34.870Z,2.77
2019-03-03T19:38:04.137Z,2.30
2019-03-03T19:40:33.581Z,2.20
2019-03-03T19:43:02.463Z,2.43
2019-03-03T19:45:38.944Z,3.67
2019-03-03T19:48:07.909Z,3.07
2019-03-03T19:50:36.978Z,2.77
2019-03-03T19:53:07.579Z,2.47
2019-03-03T19:55:36.943Z,2.20
2019-03-03T19:58:06.550Z,1.97
2019-03-03T20:00:39.144Z,2.23
2019-03-03T20:03:09.293Z,2.40
2019-03-03T20:05:40.435Z,2.07
2019-03-03T20:08:09.940Z,2.03
2019-03-03T20:10:39.435Z,1.80
2019-03-03T20:13:09.064Z,2.20
2019-03-03T20:15:38.753Z,1.97
2019-03-03T20:18:09.990Z,1.80
2019-03-03T20:20:39.755Z,1.57
2019-03-03T20:23:09.270Z,2.23
2019-03-03T20:25:38.871Z,2.10
2019-03-03T20:28:08.421Z,1.80
2019-03-03T20:30:38.517Z,1.87
2019-03-03T20:33:08.390Z,1.77
2019-03-03T20:35:38.010Z,1.70
2019-03-03T20:38:07.718Z,1.80
2019-03-03T20:40:39.074Z,1.60
2019-03-03T20:43:08.289Z,2.00
2019-03-03T20:45:37.705Z,1.53
2019-03-03T20:48:07.361Z,1.67
2019-03-03T20:50:36.680Z,1.50
2019-03-03T20:53:06.186Z,1.80
2019-03-03T20:55:35.701Z,1.60
2019-03-03T20:58:05.225Z,1.60
2019-03-03T21:00:35.494Z,1.77
2019-03-03T21:03:05.026Z,1.60
2019-03-03T21:05:34.324Z,1.50
2019-03-03T21:08:03.717Z,1.40
2019-03-03T21:10:33.882Z,1.80
2019-03-03T21:13:02.874Z,1.43
2019-03-03T21:15:31.928Z,1.27
2019-03-03T21:18:00.835Z,1.70
2019-03-03T21:20:29.750Z,1.57
2019-03-03T21:22:58.720Z,1.60
2019-03-03T21:25:27.680Z,1.40
2019-03-03T21:27:56.578Z,1.70
2019-03-03T21:30:26.195Z,1.50
2019-03-03T21:32:55.151Z,1.50
2019-03-03T21:35:24.145Z,1.53
2019-03-03T21:37:53.162Z,2.00
2019-03-03T21:40:22.918Z,1.53
2019-03-03T21:42:51.944Z,1.40
2019-03-03T21:45:21.613Z,1.63
2019-03-03T21:47:50.644Z,1.50
2019-03-03T21:50:40.082Z,1.50
2019-03-03T21:53:09.047Z,1.57
2019-03-03T21:55:38.001Z,1.73
2019-03-03T21:58:07.136Z,1.60
2019-03-03T22:00:37.290Z,1.60
2019-03-03T22:03:06.687Z,1.73
2019-03-03T22:05:35.786Z,1.30
2019-03-03T22:14:58.296Z,1.30
2019-03-03T22:17:27.237Z,1.50
2019-03-03T22:19:56.129Z,1.30
2019-03-03T22:22:25.023Z,1.40
2019-03-03T22:24:53.935Z,1.50
2019-03-03T22:27:22.827Z,1.83
2019-03-03T22:29:51.711Z,1.40
2019-03-03T22:32:20.767Z,1.40
2019-03-03T22:34:49.666Z,1.93
2019-03-03T22:37:18.558Z,1.23
2019-03-03T22:39:47.479Z,1.30
2019-03-03T22:42:16.371Z,1.10
2019-03-03T22:44:45.264Z,1.50
2019-03-03T22:47:14.201Z,1.47
2019-03-03T22:49:43.091Z,1.43
2019-03-03T22:52:11.973Z,1.37
2019-03-03T22:54:41.964Z,1.53
2019-03-03T22:57:10.924Z,1.40
2019-03-03T22:59:39.812Z,1.30
2019-03-03T23:02:08.719Z,1.67
2019-03-03T23:04:42.092Z,1.53
2019-03-03T23:07:12.591Z,1.47
2019-03-03T23:09:55.291Z,1.10
2019-03-03T23:12:32.046Z,1.40
2019-03-03T23:15:08.782Z,1.40
2019-03-03T23:17:39.210Z,1.60
2019-03-03T23:20:18.806Z,1.60
2019-03-03T23:22:55.371Z,1.47
2019-03-03T23:25:42.542Z,1.70
2019-03-03T23:28:11.544Z,1.57
2019-03-03T23:30:40.436Z,1.63
2019-03-03T23:33:09.476Z,1.53
2019-03-03T23:35:38.385Z,1.60
2019-03-03T23:38:07.269Z,1.47
2019-03-03T23:40:36.198Z,1.63
2019-03-03T23:43:05.334Z,1.50
2019-03-03T23:45:34.223Z,1.67
2019-03-03T23:48:03.386Z,1.90
2019-03-03T23:50:32.271Z,2.07
2019-03-03T23:53:01.151Z,1.40
2019-03-03T23:55:30.142Z,3.10
2019-03-03T23:57:59.037Z,1.70
